Time;durP1;ratioP1;P1;durP2;ratioP2;P2;SDS_P1;SDS_P2;PMS_P1;PMS_P2;Temp;Humidity;BMP_temperature;BMP_pressure;BME280_temperature;BME280_humidity;BME280_pressure;Samples;Min_cycle;Max_cycle;Signal;HPM_P1;HPM_P2
2021/03/04 00:00:35;;;;;;;10.50;5.40;;;2.40;99.90;;;;;;5002616;28;20080;-65
2021/03/04 00:03:06;;;;;;;7.45;5.72;;;2.40;99.90;;;;;;5000395;28;20821;-63
2021/03/04 00:05:32;;;;;;;;;;;2.40;99.90;;;;;;5002162;28;20065;-63
2021/03/04 00:07:59;;;;;;;7.88;5.80;;;2.40;99.90;;;;;;5002140;28;19933;-65
2021/03/04 00:10:26;;;;;;;7.22;5.03;;;2.40;99.90;;;;;;4999071;28;20164;-64
2021/03/04 00:12:53;;;;;;;8.75;5.38;;;2.40;99.90;;;;;;5004099;28;20099;-62
2021/03/04 00:15:22;;;;;;;9.80;4.97;;;2.40;99.90;;;;;;5005984;28;20137;-65
2021/03/04 00:17:49;;;;;;;11.32;4.70;;;2.40;99.90;;;;;;4997840;28;20120;-63
2021/03/04 00:20:19;;;;;;;8.85;5.40;;;2.40;99.90;;;;;;5002336;28;20050;-63
2021/03/04 00:22:46;;;;;;;5.22;3.70;;;2.40;99.90;;;;;;5002458;28;20057;-63
2021/03/04 00:25:13;;;;;;;8.73;4.65;;;2.40;99.90;;;;;;4998907;28;20569;-64
2021/03/04 00:27:40;;;;;;;7.35;4.28;;;2.40;99.90;;;;;;4999421;28;20411;-63
2021/03/04 00:30:09;;;;;;;7.32;4.28;;;2.40;99.90;;;;;;5001673;28;20696;-65
2021/03/04 00:32:35;;;;;;;10.98;5.05;;;2.40;99.90;;;;;;5001877;28;20058;-63
2021/03/04 00:35:03;;;;;;;12.60;5.18;;;2.40;99.90;;;;;;5001633;28;20705;-62
2021/03/04 00:37:30;;;;;;;6.65;4.35;;;2.50;99.90;;;;;;5001412;28;20065;-63
2021/03/04 00:39:56;;;;;;;11.63;9.07;;;2.50;99.90;;;;;;5001965;28;20877;-63
2021/03/04 00:42:23;;;;;;;11.35;4.93;;;2.40;99.90;;;;;;4995677;28;20447;-64
2021/03/04 00:44:49;;;;;;;7.32;4.72;;;2.50;99.90;;;;;;5000512;28;20112;-65
2021/03/04 00:47:16;;;;;;;6.43;4.20;;;2.50;99.90;;;;;;5001625;28;20820;-63
2021/03/04 00:49:42;;;;;;;7.90;4.43;;;2.40;99.90;;;;;;5000025;28;20050;-63
2021/03/04 00:52:09;;;;;;;4.80;3.88;;;2.40;99.90;;;;;;5000768;28;20085;-64
2021/03/04 00:54:37;;;;;;;6.20;4.22;;;2.40;99.90;;;;;;5003096;28;20478;-66
2021/03/04 00:57:03;;;;;;;7.13;4.32;;;2.40;99.90;;;;;;4999794;28;20577;-66
2021/03/04 00:59:30;;;;;;;8.07;4.75;;;2.40;99.90;;;;;;5002684;28;20050;-63
2021/03/04 01:01:56;;;;;;;6.93;4.97;;;2.40;99.90;;;;;;4997742;28;20042;-64
2021/03/04 01:04:23;;;;;;;6.60;4.18;;;2.50;99.90;;;;;;5001635;28;20053;-62
2021/03/04 01:06:49;;;;;;;10.02;4.57;;;2.40;99.90;;;;;;5001580;28;20042;-66
2021/03/04 01:09:16;;;;;;;6.95;4.05;;;2.40;99.90;;;;;;4996875;28;20124;-62
2021/03/04 01:11:42;;;;;;;8.98;5.32;;;2.40;99.90;;;;;;4998172;28;20182;-65
2021/03/04 01:14:09;;;;;;;9.40;3.97;;;2.40;99.90;;;;;;5000909;28;20058;-63
2021/03/04 01:16:35;;;;;;;6.63;4.38;;;2.40;99.90;;;;;;5000894;28;20062;-63
2021/03/04 01:19:02;;;;;;;7.20;3.53;;;2.40;99.90;;;;;;5000897;28;20064;-66
2021/03/04 01:21:28;;;;;;;12.18;4.38;;;2.50;99.90;;;;;;5002683;28;20084;-64
2021/03/04 01:23:55;;;;;;;7.80;4.15;;;2.50;99.90;;;;;;4999486;28;20046;-63
2021/03/04 01:26:21;;;;;;;6.88;3.85;;;2.50;99.90;;;;;;5002156;28;20109;-64
2021/03/04 01:28:48;;;;;;;6.88;4.35;;;2.50;99.90;;;;;;4999765;28;20077;-63
2021/03/04 01:31:14;;;;;;;4.88;3.33;;;2.50;99.90;;;;;;4996372;28;20850;-63
2021/03/04 01:33:41;;;;;;;5.05;3.55;;;2.50;99.90;;;;;;5000110;28;20803;-66
2021/03/04 01:36:07;;;;;;;7.43;3.92;;;2.50;99.90;;;;;;5001056;28;20104;-63
2021/03/04 01:38:34;;;;;;;6.90;3.38;;;2.50;99.90;;;;;;5000783;28;20124;-62
2021/03/04 01:41:00;;;;;;;5.15;3.35;;;2.50;99.90;;;;;;4998473;28;20117;-64
2021/03/04 01:43:26;;;;;;;4.53;2.70;;;2.50;99.90;;;;;;4999652;28;20123;-63
2021/03/04 01:45:53;;;;;;;6.75;5.03;;;2.50;99.90;;;;;;4999305;28;20053;-62
2021/03/04 01:48:21;;;;;;;7.45;3.38;;;2.60;99.90;;;;;;5001864;28;20057;-63
2021/03/04 01:50:47;;;;;;;4.65;3.08;;;2.50;99.90;;;;;;5000063;28;20652;-65
2021/03/04 01:53:14;;;;;;;6.03;3.08;;;2.50;99.90;;;;;;5000848;28;20638;-65
2021/03/04 01:55:40;;;;;;;4.85;3.20;;;2.50;99.90;;;;;;4998722;28;20073;-63
2021/03/04 01:58:07;;;;;;;3.60;3.05;;;2.50;99.90;;;;;;4999666;28;20216;-64
2021/03/04 02:00:34;;;;;;;10.50;3.67;;;2.50;99.90;;;;;;5000726;28;20792;-68
2021/03/04 02:03:00;;;;;;;4.13;2.92;;;2.50;99.90;;;;;;5002606;28;20053;-62
2021/03/04 02:05:27;;;;;;;3.97;2.80;;;2.50;99.90;;;;;;4998082;28;20050;-62
2021/03/04 02:07:59;;;;;;;3.05;2.20;;;2.50;99.90;;;;;;5000439;28;20084;-68
2021/03/04 02:10:47;;;;;;;5.82;2.42;;;2.50;99.90;;;;;;5002119;28;20465;-63
2021/03/04 02:13:35;;;;;;;3.30;2.55;;;2.50;99.90;;;;;;5003476;28;20116;-63
2021/03/04 02:16:06;;;;;;;4.07;2.70;;;2.50;99.90;;;;;;5003611;28;20103;-65
2021/03/04 02:18:38;;;;;;;2.90;1.85;;;2.50;99.90;;;;;;5001534;28;20086;-63
2021/03/04 02:21:24;;;;;;;2.92;2.40;;;2.50;99.90;;;;;;5004201;28;20042;-63
2021/03/04 02:24:09;;;;;;;4.63;1.92;;;2.60;99.90;;;;;;4998042;28;20409;-65
2021/03/04 02:27:00;;;;;;;4.75;1.38;;;2.60;99.90;;;;;;5002277;28;20053;-65
2021/03/04 02:29:29;;;;;;;3.33;1.63;;;2.60;99.90;;;;;;5006808;28;20050;-64
2021/03/04 02:32:00;;;;;;;2.88;1.30;;;2.60;99.90;;;;;;5000039;28;20096;-62
2021/03/04 02:34:28;;;;;;;2.15;1.52;;;2.60;99.90;;;;;;5000796;28;20140;-64
2021/03/04 02:36:56;;;;;;;2.60;1.50;;;2.70;99.90;;;;;;5001511;28;20124;-62
2021/03/04 02:39:24;;;;;;;3.67;1.17;;;2.70;99.90;;;;;;5000837;28;20708;-65
2021/03/04 02:41:52;;;;;;;2.70;1.33;;;2.70;99.90;;;;;;5000651;28;20121;-62
2021/03/04 02:44:21;;;;;;;2.60;1.40;;;2.70;99.90;;;;;;4993302;28;20120;-65
2021/03/04 02:46:50;;;;;;;1.55;0.90;;;2.70;99.90;;;;;;5004171;28;20437;-65
2021/03/04 02:49:35;;;;;;;3.05;1.02;;;2.70;99.90;;;;;;4998943;28;20059;-65
2021/03/04 02:52:03;;;;;;;3.60;1.48;;;2.70;99.90;;;;;;5002265;28;20069;-68
2021/03/04 02:54:30;;;;;;;5.72;1.20;;;2.70;99.90;;;;;;5003509;28;20065;-64
2021/03/04 02:56:58;;;;;;;3.08;1.90;;;2.70;99.90;;;;;;5003445;28;20556;-63
2021/03/04 02:59:26;;;;;;;4.53;1.15;;;2.70;99.90;;;;;;5001301;28;20422;-64
2021/03/04 03:01:53;;;;;;;6.32;1.20;;;2.70;99.90;;;;;;5002687;28;20410;-64
2021/03/04 03:04:21;;;;;;;1.25;0.93;;;2.70;99.90;;;;;;5000391;28;20054;-62
2021/03/04 03:06:48;;;;;;;4.05;1.15;;;2.70;99.90;;;;;;5002032;28;20045;-66
2021/03/04 03:09:15;;;;;;;2.28;0.82;;;2.70;99.90;;;;;;5004859;28;20046;-66
2021/03/04 03:11:42;;;;;;;1.30;0.70;;;2.70;99.90;;;;;;5000028;28;20133;-63
2021/03/04 03:14:09;;;;;;;2.15;0.98;;;2.70;99.90;;;;;;5001534;28;20054;-63
2021/03/04 03:16:36;;;;;;;3.10;0.77;;;2.60;99.90;;;;;;5003960;28;20053;-62
2021/03/04 03:19:02;;;;;;;6.05;1.30;;;2.70;99.90;;;;;;5001317;28;20054;-65
2021/03/04 03:21:29;;;;;;;1.40;0.90;;;2.60;99.90;;;;;;5002399;28;20563;-66
2021/03/04 03:23:56;;;;;;;2.70;1.35;;;2.60;99.90;;;;;;4997271;28;20137;-67
2021/03/04 03:26:22;;;;;;;4.50;1.02;;;2.60;99.90;;;;;;5002688;28;20081;-65
2021/03/04 03:28:49;;;;;;;4.10;1.42;;;2.60;99.90;;;;;;5001656;28;20521;-67
2021/03/04 03:31:20;;;;;;;3.53;1.17;;;2.60;99.90;;;;;;4999417;28;20137;-62
2021/03/04 03:33:51;;;;;;;4.90;1.15;;;2.60;99.90;;;;;;5000910;28;20054;-64
2021/03/04 03:36:18;;;;;;;2.58;1.02;;;2.50;99.90;;;;;;5004414;28;20058;-62
2021/03/04 03:38:46;;;;;;;3.20;0.70;;;2.60;99.90;;;;;;5003757;28;20125;-65
2021/03/04 03:41:12;;;;;;;3.75;1.00;;;2.50;99.90;;;;;;5002880;28;20112;-66
2021/03/04 03:43:41;;;;;;;4.80;0.88;;;2.50;99.90;;;;;;4998821;28;20142;-63
2021/03/04 03:46:10;;;;;;;3.28;0.60;;;2.40;99.90;;;;;;4997459;28;20432;-64
2021/03/04 03:48:37;;;;;;;3.07;1.03;;;2.40;99.90;;;;;;5005013;28;20478;-63
2021/03/04 03:51:04;;;;;;;2.08;0.45;;;2.40;99.90;;;;;;5002791;28;20468;-64
2021/03/04 03:53:32;;;;;;;5.40;1.25;;;2.40;99.90;;;;;;5002381;28;20124;-65
2021/03/04 03:55:59;;;;;;;1.50;0.73;;;2.30;99.90;;;;;;4996248;28;20112;-66
2021/03/04 03:58:27;;;;;;;2.17;0.40;;;2.30;99.90;;;;;;4998784;28;20698;-62
2021/03/04 04:00:55;;;;;;;0.47;0.43;;;2.40;99.90;;;;;;5002406;28;20144;-64
2021/03/04 04:03:23;;;;;;;1.73;0.32;;;2.30;99.90;;;;;;4994558;28;20685;-63
2021/03/04 04:05:52;;;;;;;2.28;0.43;;;2.30;99.90;;;;;;4997654;28;20049;-62
2021/03/04 04:08:19;;;;;;;2.22;0.60;;;2.30;99.90;;;;;;5004598;28;20041;-64
2021/03/04 04:10:48;;;;;;;1.25;0.52;;;2.30;99.90;;;;;;5001767;28;20418;-63
2021/03/04 04:13:19;;;;;;;2.50;0.60;;;2.30;99.90;;;;;;4998084;28;20050;-65
2021/03/04 04:15:45;;;;;;;1.40;0.52;;;2.30;99.90;;;;;;5002976;28;20453;-63
2021/03/04 04:18:14;;;;;;;6.47;1.23;;;2.30;99.90;;;;;;4998661;28;20050;-66
2021/03/04 04:20:48;;;;;;;2.50;1.58;;;2.30;99.90;;;;;;5001617;28;20050;-64
2021/03/04 04:23:15;;;;;;;4.03;0.93;;;2.40;99.90;;;;;;5003724;28;20096;-65
2021/03/04 04:25:53;;;;;;;2.05;0.52;;;2.40;99.90;;;;;;5000804;28;20053;-63
2021/03/04 04:28:21;;;;;;;4.55;1.17;;;2.40;99.90;;;;;;5001986;28;20054;-62
2021/03/04 04:30:48;;;;;;;5.85;0.70;;;2.30;99.90;;;;;;5001616;28;20156;-64
2021/03/04 04:33:14;;;;;;;4.63;0.95;;;2.30;99.90;;;;;;5000797;28;20056;-63
2021/03/04 04:35:41;;;;;;;6.40;1.52;;;2.30;99.90;;;;;;5002473;28;20117;-63
2021/03/04 04:38:09;;;;;;;2.47;0.32;;;2.30;99.90;;;;;;5000667;28;20037;-64
2021/03/04 04:40:36;;;;;;;6.10;0.90;;;2.30;99.90;;;;;;4999250;28;20042;-63
2021/03/04 04:43:03;;;;;;;1.95;0.68;;;2.30;99.90;;;;;;4998484;28;20460;-63
2021/03/04 04:45:29;;;;;;;4.75;0.70;;;2.30;99.90;;;;;;5000764;28;20100;-63
2021/03/04 04:47:56;;;;;;;4.93;1.00;;;2.20;99.90;;;;;;5000584;28;20088;-65
2021/03/04 04:50:23;;;;;;;1.98;0.45;;;2.20;99.90;;;;;;5000685;28;20046;-64
2021/03/04 04:52:49;;;;;;;2.15;1.23;;;2.20;99.90;;;;;;4999735;28;20054;-63
2021/03/04 04:55:16;;;;;;;5.18;0.93;;;2.20;99.90;;;;;;5002032;28;20565;-64
2021/03/04 04:57:42;;;;;;;4.47;0.65;;;2.20;99.90;;;;;;5000213;28;20364;-63
2021/03/04 05:00:10;;;;;;;2.50;1.10;;;2.20;99.90;;;;;;5000003;28;20062;-64
2021/03/04 05:02:37;;;;;;;3.83;1.02;;;2.20;99.90;;;;;;4999388;28;20050;-63
2021/03/04 05:05:06;;;;;;;1.27;0.60;;;2.20;99.90;;;;;;4996631;28;20054;-63
2021/03/04 05:07:32;;;;;;;2.42;2.22;;;2.20;99.90;;;;;;4999748;28;20130;-63
2021/03/04 05:09:59;;;;;;;14.88;2.22;;;2.20;99.90;;;;;;4998899;28;20046;-63
2021/03/04 05:12:25;;;;;;;2.65;0.82;;;2.20;99.90;;;;;;4997012;28;20049;-63
2021/03/04 05:14:52;;;;;;;2.10;0.70;;;2.10;99.90;;;;;;5001140;28;20047;-64
2021/03/04 05:17:21;;;;;;;5.40;1.05;;;2.10;99.90;;;;;;5003088;28;20482;-63
2021/03/04 05:19:48;;;;;;;4.05;0.80;;;2.10;99.90;;;;;;4998581;28;20041;-63
2021/03/04 05:22:15;;;;;;;1.65;0.63;;;2.10;99.90;;;;;;5002385;28;20447;-65
2021/03/04 05:24:41;;;;;;;10.32;1.65;;;2.10;99.90;;;;;;5000274;28;20038;-62
2021/03/04 05:27:08;;;;;;;3.53;0.70;;;2.00;99.90;;;;;;5000044;28;20054;-66
2021/03/04 05:29:35;;;;;;;3.60;0.70;;;2.00;99.90;;;;;;5002655;28;20080;-62
2021/03/04 05:32:01;;;;;;;6.32;0.80;;;2.00;99.90;;;;;;5000573;28;20085;-66
2021/03/04 05:34:28;;;;;;;3.42;1.00;;;2.00;99.90;;;;;;5000696;28;20652;-63
2021/03/04 05:36:54;;;;;;;8.82;1.40;;;1.90;99.90;;;;;;5001037;28;20112;-64
2021/03/04 05:39:21;;;;;;;4.20;1.02;;;1.90;99.90;;;;;;5000967;28;20176;-64
2021/03/04 05:41:48;;;;;;;7.85;0.93;;;1.90;99.90;;;;;;5000537;28;20081;-66
2021/03/04 05:44:15;;;;;;;7.63;1.58;;;1.80;99.90;;;;;;5000881;28;20496;-65
2021/03/04 05:46:45;;;;;;;4.07;0.80;;;1.80;99.90;;;;;;5002140;28;20058;-66
2021/03/04 05:49:15;;;;;;;6.93;0.95;;;1.80;99.90;;;;;;5007367;28;20045;-65
2021/03/04 05:51:58;;;;;;;6.80;0.98;;;1.80;99.90;;;;;;5000776;28;20557;-64
2021/03/04 05:54:27;;;;;;;10.80;1.50;;;1.70;99.90;;;;;;5005463;28;21242;-63
2021/03/04 05:56:57;;;;;;;1.58;0.80;;;1.70;99.90;;;;;;5006333;28;20042;-63
2021/03/04 05:59:26;;;;;;;4.10;1.30;;;1.70;99.90;;;;;;5003000;28;20042;-63
2021/03/04 06:01:53;;;;;;;4.05;0.88;;;1.70;99.90;;;;;;5003042;28;20150;-66
2021/03/04 06:04:20;;;;;;;3.67;0.82;;;1.70;99.90;;;;;;5003800;28;20054;-63
2021/03/04 06:06:47;;;;;;;4.95;0.73;;;1.70;99.90;;;;;;5001493;28;20058;-63
2021/03/04 06:09:13;;;;;;;10.52;1.23;;;1.70;99.90;;;;;;5004546;28;20500;-64
2021/03/04 06:11:40;;;;;;;5.32;0.65;;;1.70;99.90;;;;;;5001136;28;20079;-62
2021/03/04 06:14:06;;;;;;;4.88;0.70;;;1.70;99.90;;;;;;5002557;28;20748;-62
2021/03/04 06:16:33;;;;;;;2.63;1.05;;;1.70;99.90;;;;;;5004435;28;20050;-64
2021/03/04 06:19:00;;;;;;;3.28;0.70;;;1.70;99.90;;;;;;5002587;28;20058;-62
2021/03/04 06:21:28;;;;;;;5.68;0.90;;;1.70;99.90;;;;;;5007034;28;20054;-63
2021/03/04 06:23:56;;;;;;;3.30;0.60;;;1.70;99.90;;;;;;4999573;28;20069;-65
2021/03/04 06:26:35;;;;;;;2.63;0.88;;;1.80;99.90;;;;;;5002626;28;20490;-63
2021/03/04 06:29:19;;;;;;;9.23;1.55;;;1.80;99.90;;;;;;5005560;28;20119;-64
2021/03/04 06:31:57;;;;;;;7.45;2.38;;;1.80;99.90;;;;;;4999382;28;20412;-66
2021/03/04 06:34:24;;;;;;;6.82;0.88;;;1.70;99.90;;;;;;5005565;28;20052;-63
2021/03/04 06:37:06;;;;;;;5.78;1.23;;;1.70;99.90;;;;;;5004217;28;20115;-62
2021/03/04 06:39:42;;;;;;;2.72;0.65;;;1.80;99.90;;;;;;5002020;28;20104;-62
2021/03/04 06:42:09;;;;;;;8.00;1.33;;;1.70;99.90;;;;;;4999881;28;20104;-63
2021/03/04 06:44:55;;;;;;;7.10;1.40;;;1.70;99.90;;;;;;5001069;28;20089;-63
2021/03/04 06:47:23;;;;;;;11.13;1.00;;;1.70;99.90;;;;;;5002744;28;20119;-64
2021/03/04 06:49:50;;;;;;;8.18;0.88;;;1.70;99.90;;;;;;5002342;28;20050;-64
2021/03/04 06:52:33;;;;;;;3.55;0.80;;;1.70;99.90;;;;;;5002429;28;20053;-64
2021/03/04 06:55:10;;;;;;;7.63;2.22;;;1.70;99.90;;;;;;5002905;28;20050;-63
2021/03/04 06:57:37;;;;;;;6.10;0.90;;;1.60;99.90;;;;;;5004726;28;20049;-63
2021/03/04 07:00:16;;;;;;;10.55;1.15;;;1.60;99.90;;;;;;5002467;28;20037;-62
2021/03/04 07:02:54;;;;;;;3.03;1.10;;;1.70;99.90;;;;;;5005213;28;20533;-66
2021/03/04 07:05:21;;;;;;;4.25;1.70;;;1.70;99.90;;;;;;5001463;28;20049;-63
2021/03/04 07:07:51;;;;;;;4.40;0.88;;;1.60;99.90;;;;;;5002294;28;20385;-63
2021/03/04 07:10:19;;;;;;;2.38;0.50;;;1.60;99.90;;;;;;5002670;28;20134;-63
2021/03/04 07:12:47;;;;;;;2.40;0.73;;;1.60;99.90;;;;;;5001603;28;20516;-64
2021/03/04 07:15:18;;;;;;;14.60;1.02;;;1.60;99.90;;;;;;5000565;28;20057;-62
2021/03/04 07:17:48;;;;;;;2.55;0.70;;;1.60;99.90;;;;;;5002284;28;21044;-62
2021/03/04 07:20:19;;;;;;;9.60;0.73;;;1.60;99.90;;;;;;5000441;28;20080;-66
2021/03/04 07:23:03;;;;;;;3.40;0.82;;;1.60;99.90;;;;;;5004006;28;20085;-64
2021/03/04 07:25:30;;;;;;;3.08;0.70;;;1.70;99.90;;;;;;5001056;28;20115;-63
2021/03/04 07:27:56;;;;;;;3.45;0.80;;;1.70;99.90;;;;;;4999763;28;20042;-64
2021/03/04 07:30:24;;;;;;;5.18;0.70;;;1.60;99.90;;;;;;5005009;28;20053;-67
2021/03/04 07:32:50;;;;;;;5.18;1.02;;;1.50;99.90;;;;;;5000395;28;20066;-63
2021/03/04 07:35:18;;;;;;;1.92;1.05;;;1.50;99.90;;;;;;5002934;28;20124;-62
2021/03/04 07:37:45;;;;;;;7.45;0.80;;;1.50;99.90;;;;;;5002008;28;20410;-65
2021/03/04 07:40:12;;;;;;;5.55;1.27;;;1.50;99.90;;;;;;5001342;28;20151;-64
2021/03/04 07:42:39;;;;;;;4.00;0.63;;;1.50;99.90;;;;;;5001339;28;20476;-65
2021/03/04 07:45:12;;;;;;;11.10;0.70;;;1.40;99.90;;;;;;5002702;28;20066;-65
2021/03/04 07:47:38;;;;;;;7.20;0.80;;;1.40;99.90;;;;;;4999621;28;20054;-63
2021/03/04 07:50:25;;;;;;;3.10;1.08;;;1.40;99.90;;;;;;5004472;28;20054;-62
2021/03/04 07:53:03;;;;;;;13.25;1.13;;;1.40;99.90;;;;;;5002400;28;20045;-63
2021/03/04 07:55:39;;;;;;;7.22;0.98;;;1.30;99.90;;;;;;5002636;28;20057;-65
2021/03/04 07:58:14;;;;;;;3.92;0.80;;;1.30;99.90;;;;;;5000808;28;20062;-62
2021/03/04 08:00:41;;;;;;;8.40;2.15;;;1.40;99.90;;;;;;5000615;28;20049;-62
2021/03/04 08:03:09;;;;;;;5.80;1.00;;;1.50;99.90;;;;;;5004229;28;20562;-65
2021/03/04 08:05:38;;;;;;;1.10;0.47;;;1.40;99.90;;;;;;5000499;28;20149;-62
2021/03/04 08:08:15;;;;;;;1.27;1.15;;;1.50;99.90;;;;;;5001706;28;20061;-63
2021/03/04 08:10:43;;;;;;;4.95;1.23;;;1.50;99.90;;;;;;5001224;28;20062;-63
2021/03/04 08:13:10;;;;;;;4.97;0.80;;;1.60;99.90;;;;;;4999063;28;20116;-64
2021/03/04 08:15:45;;;;;;;4.68;1.38;;;1.70;99.90;;;;;;5001213;28;20419;-64
2021/03/04 08:18:21;;;;;;;13.48;1.20;;;1.80;99.90;;;;;;5000885;28;20050;-63
2021/03/04 08:20:50;;;;;;;3.50;1.75;;;1.80;99.90;;;;;;4999462;28;20077;-63
2021/03/04 08:23:18;;;;;;;5.97;0.82;;;1.80;99.90;;;;;;5002135;28;20100;-62
2021/03/04 08:25:46;;;;;;;4.28;0.75;;;1.70;99.90;;;;;;4996256;28;20462;-63
2021/03/04 08:28:28;;;;;;;3.92;0.70;;;1.70;99.90;;;;;;5003349;28;20071;-64
2021/03/04 08:30:56;;;;;;;3.08;0.88;;;1.60;99.90;;;;;;4999750;28;20100;-66
2021/03/04 08:33:23;;;;;;;5.30;1.40;;;1.60;99.90;;;;;;4998957;28;20532;-62
2021/03/04 08:35:50;;;;;;;4.63;1.33;;;1.50;99.90;;;;;;5001732;28;20115;-66
2021/03/04 08:38:19;;;;;;;13.40;2.08;;;1.50;99.90;;;;;;4999714;28;20042;-63
2021/03/04 08:40:49;;;;;;;6.78;0.75;;;1.50;99.90;;;;;;5002827;28;20512;-62
2021/03/04 08:43:20;;;;;;;3.80;1.35;;;1.50;99.90;;;;;;4998799;28;20053;-65
2021/03/04 08:45:51;;;;;;;5.43;1.35;;;1.50;99.90;;;;;;4999586;28;20104;-62
2021/03/04 08:48:19;;;;;;;9.05;2.38;;;1.60;99.90;;;;;;4999413;28;20058;-64
2021/03/04 08:50:49;;;;;;;4.13;1.42;;;1.60;99.90;;;;;;5002622;28;20200;-62
2021/03/04 08:53:21;;;;;;;14.90;1.50;;;1.70;99.90;;;;;;5000160;28;20782;-64
2021/03/04 08:55:50;;;;;;;11.57;1.13;;;1.80;99.90;;;;;;5001458;28;20131;-67
2021/03/04 08:58:21;;;;;;;4.65;0.90;;;1.90;99.90;;;;;;5001582;28;20398;-62
2021/03/04 09:01:03;;;;;;;2.28;1.15;;;1.90;99.90;;;;;;5001944;28;20053;-66
2021/03/04 09:03:36;;;;;;;8.02;1.17;;;1.80;99.90;;;;;;5001529;28;20988;-62
2021/03/04 09:06:12;;;;;;;1.80;0.93;;;1.70;99.90;;;;;;5001413;28;20481;-66
2021/03/04 09:08:43;;;;;;;11.77;1.48;;;1.80;99.90;;;;;;4998760;28;20050;-62
2021/03/04 09:11:32;;;;;;;7.43;1.25;;;1.70;99.90;;;;;;4999117;28;20497;-64
2021/03/04 09:14:04;;;;;;;8.90;1.57;;;1.70;99.90;;;;;;4995706;28;20077;-63
2021/03/04 09:16:41;;;;;;;5.95;1.08;;;1.80;99.90;;;;;;5004598;28;20045;-63
2021/03/04 09:19:08;;;;;;;5.50;0.98;;;1.80;99.90;;;;;;5006477;28;20061;-62
2021/03/04 09:21:35;;;;;;;3.92;1.00;;;1.80;99.90;;;;;;5006922;28;20065;-62
2021/03/04 09:24:02;;;;;;;1.90;0.68;;;1.80;99.90;;;;;;5007054;28;20053;-62
2021/03/04 09:26:33;;;;;;;1.88;0.80;;;1.80;99.90;;;;;;5007150;28;20096;-64
2021/03/04 09:29:04;;;;;;;7.60;1.20;;;1.80;99.90;;;;;;5006272;28;20065;-63
2021/03/04 09:31:30;;;;;;;6.05;1.50;;;1.90;99.90;;;;;;5009286;28;20057;-67
2021/03/04 09:34:01;;;;;;;5.20;0.70;;;1.90;99.90;;;;;;5006512;28;20508;-62
2021/03/04 09:36:28;;;;;;;11.05;1.00;;;1.80;99.90;;;;;;5009004;28;20160;-62
2021/03/04 09:38:57;;;;;;;5.90;0.85;;;1.80;99.90;;;;;;5009220;28;20045;-65
2021/03/04 09:41:25;;;;;;;3.45;0.60;;;1.70;99.90;;;;;;5005782;28;20066;-62
2021/03/04 09:43:56;;;;;;;6.80;0.77;;;1.70;99.90;;;;;;5004288;28;20049;-62
2021/03/04 09:46:28;;;;;;;9.13;1.40;;;1.80;99.90;;;;;;5005626;28;20054;-64
2021/03/04 09:49:04;;;;;;;5.18;0.75;;;1.80;99.90;;;;;;5007665;28;20054;-64
2021/03/04 09:51:39;;;;;;;12.13;2.63;;;1.80;99.90;;;;;;5005392;28;20054;-63
2021/03/04 09:54:07;;;;;;;22.60;2.38;;;1.80;99.90;;;;;;5007207;28;20116;-62
2021/03/04 09:57:08;;;;;;;7.43;0.98;;;1.90;99.90;;;;;;5007037;28;20049;-63
2021/03/04 09:59:48;;;;;;;5.53;1.10;;;1.90;99.90;;;;;;4997816;28;20062;-64
2021/03/04 10:02:16;;;;;;;5.50;0.95;;;2.00;99.90;;;;;;5008301;28;20050;-64
2021/03/04 10:05:03;;;;;;;3.70;0.88;;;2.10;99.90;;;;;;5008202;28;20061;-64
2021/03/04 10:07:31;;;;;;;5.85;1.23;;;2.10;99.90;;;;;;5001595;28;20553;-63
2021/03/04 10:09:59;;;;;;;6.90;1.33;;;2.20;99.90;;;;;;5005673;28;20053;-62
2021/03/04 10:12:26;;;;;;;7.05;1.50;;;2.10;99.90;;;;;;5009774;28;20450;-62
2021/03/04 10:14:54;;;;;;;15.80;1.90;;;2.20;99.90;;;;;;5004167;28;20077;-64
2021/03/04 10:17:21;;;;;;;3.83;1.58;;;2.30;99.90;;;;;;5010068;28;20050;-64
2021/03/04 10:19:48;;;;;;;10.48;1.23;;;2.40;99.90;;;;;;5004919;28;20172;-62
2021/03/04 10:22:15;;;;;;;12.90;1.77;;;2.40;99.90;;;;;;5007687;28;20060;-63
2021/03/04 10:24:42;;;;;;;13.88;4.13;;;2.40;99.90;;;;;;5006407;28;20363;-62
2021/03/04 10:27:08;;;;;;;4.88;0.68;;;2.30;99.90;;;;;;5004607;28;20057;-65
2021/03/04 10:29:37;;;;;;;6.47;0.93;;;2.30;99.90;;;;;;5004098;28;20124;-67
2021/03/04 10:32:04;;;;;;;10.30;1.40;;;2.30;99.90;;;;;;5002454;28;20042;-62
2021/03/04 10:34:31;;;;;;;7.75;1.17;;;2.30;99.90;;;;;;4997993;28;20054;-66
2021/03/04 10:36:57;;;;;;;7.45;1.17;;;2.30;99.90;;;;;;5004098;28;20054;-63
2021/03/04 10:39:24;;;;;;;10.80;1.45;;;2.30;99.90;;;;;;5002648;28;20143;-64
2021/03/04 10:41:50;;;;;;;7.97;1.65;;;2.30;99.90;;;;;;5000360;28;20081;-63
2021/03/04 10:44:17;;;;;;;4.70;0.93;;;2.40;99.90;;;;;;5001502;28;20394;-63
2021/03/04 10:46:44;;;;;;;7.50;1.63;;;2.40;99.90;;;;;;5001553;28;20042;-62
2021/03/04 10:49:10;;;;;;;7.90;1.40;;;2.30;99.90;;;;;;5002227;28;20148;-63
2021/03/04 10:51:37;;;;;;;2.33;0.93;;;2.30;99.90;;;;;;5002184;28;20046;-70
2021/03/04 10:54:03;;;;;;;15.90;2.88;;;2.40;99.90;;;;;;5003423;28;20437;-64
2021/03/04 10:56:30;;;;;;;9.13;0.82;;;2.50;99.90;;;;;;5006750;28;20062;-65
2021/03/04 10:58:56;;;;;;;9.20;1.83;;;2.50;99.90;;;;;;5004661;28;20066;-65
2021/03/04 11:01:23;;;;;;;12.02;2.03;;;2.50;99.90;;;;;;5002134;28;20087;-64
2021/03/04 11:03:50;;;;;;;5.53;0.98;;;2.50;99.90;;;;;;5002935;28;20121;-66
2021/03/04 11:06:18;;;;;;;5.05;1.10;;;2.50;99.90;;;;;;5000023;28;20044;-62
2021/03/04 11:08:44;;;;;;;6.57;0.93;;;2.30;99.90;;;;;;5001979;28;20114;-62
2021/03/04 11:11:11;;;;;;;6.03;0.65;;;2.40;99.90;;;;;;5004251;28;20049;-64
2021/03/04 11:13:37;;;;;;;7.38;1.63;;;2.40;99.90;;;;;;4998738;28;20548;-62
2021/03/04 11:16:04;;;;;;;8.05;2.70;;;2.40;99.90;;;;;;5002447;28;20123;-62
2021/03/04 11:18:31;;;;;;;20.33;5.07;;;2.50;99.90;;;;;;5002681;28;21664;-62
2021/03/04 11:20:58;;;;;;;6.63;1.42;;;2.40;99.90;;;;;;5002577;28;20046;-62
2021/03/04 11:23:24;;;;;;;7.55;0.80;;;2.30;99.90;;;;;;5002206;28;20105;-62
2021/03/04 11:25:59;;;;;;;6.28;1.33;;;2.30;99.90;;;;;;5000611;28;20129;-62
2021/03/04 11:28:26;;;;;;;4.35;0.93;;;2.10;99.90;;;;;;5000851;28;20053;-62
2021/03/04 11:30:55;;;;;;;5.32;1.63;;;2.20;99.90;;;;;;5005206;28;20057;-63
2021/03/04 11:33:22;;;;;;;5.93;0.60;;;2.30;99.90;;;;;;4999120;28;20064;-63
2021/03/04 11:35:49;;;;;;;14.15;1.20;;;2.40;99.90;;;;;;4999378;28;20050;-65
2021/03/04 11:38:16;;;;;;;2.58;0.70;;;2.40;99.90;;;;;;5002071;28;20112;-64
2021/03/04 11:40:43;;;;;;;5.30;1.67;;;2.50;99.90;;;;;;4997633;28;20046;-65
2021/03/04 11:43:09;;;;;;;2.33;0.93;;;2.50;99.90;;;;;;5001551;28;20086;-65
2021/03/04 11:45:36;;;;;;;8.27;1.58;;;2.50;99.90;;;;;;5001650;28;20084;-62
2021/03/04 11:48:03;;;;;;;8.43;1.02;;;2.40;99.90;;;;;;5001244;28;20464;-65
2021/03/04 11:50:30;;;;;;;4.72;1.30;;;2.30;99.90;;;;;;5001732;28;20128;-64
2021/03/04 11:52:56;;;;;;;4.50;0.93;;;2.30;99.90;;;;;;5002944;28;20584;-65
2021/03/04 11:55:23;;;;;;;10.63;1.67;;;2.40;99.90;;;;;;5000267;28;20049;-64
2021/03/04 11:57:49;;;;;;;5.82;1.10;;;2.40;99.90;;;;;;5001021;28;20050;-63
2021/03/04 12:00:17;;;;;;;3.03;0.88;;;2.40;99.90;;;;;;5001193;28;20049;-62
2021/03/04 12:02:43;;;;;;;8.07;0.90;;;2.40;99.90;;;;;;5000949;28;20053;-62
2021/03/04 12:05:11;;;;;;;10.20;0.82;;;2.50;99.90;;;;;;5001676;28;20509;-64
2021/03/04 12:07:37;;;;;;;5.35;1.75;;;2.60;99.90;;;;;;4998903;28;20089;-63
2021/03/04 12:10:04;;;;;;;10.25;1.30;;;2.60;99.90;;;;;;5003849;28;20080;-62
2021/03/04 12:12:30;;;;;;;3.00;1.00;;;2.40;99.90;;;;;;4999919;28;20054;-64
2021/03/04 12:14:58;;;;;;;2.42;1.25;;;2.40;99.90;;;;;;5001254;28;20057;-63
2021/03/04 12:17:25;;;;;;;7.63;2.97;;;2.50;99.90;;;;;;5000736;28;20150;-62
2021/03/04 12:19:53;;;;;;;3.80;0.65;;;2.50;99.90;;;;;;4997225;28;22819;-62
2021/03/04 12:22:19;;;;;;;6.78;1.30;;;2.50;99.90;;;;;;5000469;28;20045;-63
2021/03/04 12:24:46;;;;;;;3.65;0.47;;;2.40;99.90;;;;;;5003064;28;20053;-62
2021/03/04 12:27:13;;;;;;;6.30;2.08;;;2.40;99.90;;;;;;4999326;28;20053;-63
2021/03/04 12:29:39;;;;;;;3.83;0.70;;;2.50;99.90;;;;;;5001078;28;20157;-64
2021/03/04 12:32:06;;;;;;;7.65;1.20;;;2.50;99.90;;;;;;5001846;28;20625;-62
2021/03/04 12:34:33;;;;;;;7.00;1.42;;;2.60;99.90;;;;;;5002123;28;20662;-64
2021/03/04 12:37:00;;;;;;;8.02;1.55;;;2.50;99.90;;;;;;5004309;28;20145;-62
2021/03/04 12:39:26;;;;;;;3.67;1.30;;;2.60;99.90;;;;;;4999684;28;20672;-62
2021/03/04 12:41:54;;;;;;;1.67;0.52;;;2.60;99.90;;;;;;4999787;28;20053;-63
2021/03/04 12:44:21;;;;;;;4.90;0.82;;;2.60;99.90;;;;;;5001729;28;20145;-63
2021/03/04 12:46:47;;;;;;;5.65;1.38;;;2.50;99.90;;;;;;5001338;28;20482;-63
2021/03/04 12:49:14;;;;;;;19.02;1.63;;;2.50;99.90;;;;;;5000384;28;20470;-62
2021/03/04 12:51:41;;;;;;;11.48;1.10;;;2.50;99.90;;;;;;5001011;28;20204;-64
2021/03/04 12:54:07;;;;;;;19.63;3.60;;;2.40;99.90;;;;;;4997033;28;20058;-65
2021/03/04 12:56:34;;;;;;;2.92;1.13;;;2.30;99.90;;;;;;5002212;28;20056;-62
2021/03/04 12:59:03;;;;;;;8.30;1.25;;;2.30;99.90;;;;;;5001595;28;20045;-62
2021/03/04 13:01:30;;;;;;;7.10;0.93;;;2.30;99.90;;;;;;5000693;28;20136;-64
2021/03/04 13:03:57;;;;;;;8.68;2.50;;;2.40;99.90;;;;;;4999073;28;20058;-64